Time;durP1;ratioP1;P1;durP2;ratioP2;P2;SDS_P1;SDS_P2;PMS_P1;PMS_P2;Temp;Humidity;BMP_temperature;BMP_pressure;BME280_temperature;BME280_humidity;BME280_pressure;Samples;Min_cycle;Max_cycle;Signal;HPM_P1;HPM_P2
2021/07/15 00:02:12;;;;;;;1.58;1.48;;;;;;;17.90;60.08;98223.94;5034019;28;20616;-63
2021/07/15 00:04:38;;;;;;;1.77;1.58;;;;;;;17.94;60.11;98218.50;5032578;28;20060;-62
2021/07/15 00:07:03;;;;;;;1.83;1.73;;;;;;;17.87;60.18;98221.50;5028552;28;20084;-63
2021/07/15 00:09:29;;;;;;;1.65;1.48;;;;;;;17.87;60.27;98222.34;5028294;28;20034;-62
2021/07/15 00:11:55;;;;;;;1.30;1.30;;;;;;;17.75;60.65;98223.00;5030150;28;20030;-63
2021/07/15 00:14:22;;;;;;;1.80;1.60;;;;;;;17.81;60.91;98220.09;5022217;28;20029;-63
2021/07/15 00:16:53;;;;;;;1.25;1.25;;;;;;;17.77;60.92;98221.19;5026819;28;20037;-62
2021/07/15 00:19:21;;;;;;;1.30;1.30;;;;;;;17.75;61.17;98225.59;5024598;28;20088;-62
2021/07/15 00:21:46;;;;;;;1.88;1.77;;;;;;;17.59;61.59;98228.19;5027902;28;20116;-63
2021/07/15 00:24:12;;;;;;;1.70;1.15;;;;;;;17.64;61.70;98217.59;5026029;28;20033;-62
2021/07/15 00:26:37;;;;;;;1.95;1.85;;;;;;;17.58;62.04;98223.09;5028348;28;20043;-62
2021/07/15 00:29:05;;;;;;;1.40;1.40;;;;;;;17.55;62.12;98236.19;5028090;28;20026;-62
2021/07/15 00:31:30;;;;;;;1.50;1.40;;;;;;;17.55;62.19;98231.00;5020746;28;20478;-62
2021/07/15 00:33:56;;;;;;;1.50;1.40;;;;;;;17.55;62.12;98234.44;5022177;28;20025;-63
2021/07/15 00:36:21;;;;;;;1.40;1.40;;;;;;;17.56;61.85;98237.88;5023165;28;20112;-62
2021/07/15 00:38:48;;;;;;;2.35;1.75;;;;;;;17.60;61.80;98244.59;5021509;28;20036;-63
2021/07/15 00:41:14;;;;;;;1.60;1.50;;;;;;;17.59;61.78;98251.53;5021015;28;20039;-63
2021/07/15 00:43:39;;;;;;;1.77;1.63;;;;;;;17.57;61.95;98240.34;5024657;28;20034;-63
2021/07/15 00:46:04;;;;;;;1.80;1.70;;;;;;;17.53;62.08;98249.22;5024931;28;20034;-63
2021/07/15 00:48:30;;;;;;;1.75;1.52;;;;;;;17.51;62.02;98248.47;5024219;28;20361;-63
2021/07/15 00:50:56;;;;;;;2.05;1.70;;;;;;;17.58;61.76;98243.81;5026725;28;20021;-63
2021/07/15 00:53:22;;;;;;;1.25;1.25;;;;;;;17.60;61.91;98245.44;5030736;28;20074;-63
2021/07/15 00:55:48;;;;;;;2.50;1.70;;;;;;;17.65;61.52;98247.78;5027466;28;20046;-62
2021/07/15 00:58:16;;;;;;;1.58;1.48;;;;;;;17.74;61.18;98244.66;5025573;28;20044;-63
2021/07/15 01:00:45;;;;;;;1.90;1.70;;;;;;;17.70;61.20;98241.41;5025709;28;20025;-62
2021/07/15 01:03:12;;;;;;;2.88;1.95;;;;;;;17.76;60.70;98253.22;5031849;28;20057;-63
2021/07/15 01:05:41;;;;;;;1.98;1.88;;;;;;;17.80;60.70;98252.97;5028897;28;20393;-62
2021/07/15 01:08:08;;;;;;;1.85;1.60;;;;;;;17.78;60.86;98251.38;5029545;28;20032;-62
2021/07/15 01:10:35;;;;;;;1.85;1.75;;;;;;;17.78;60.37;98253.94;5025648;28;20033;-63
2021/07/15 01:13:20;;;;;;;1.98;1.88;;;;;;;17.84;59.96;98248.44;5022979;28;20053;-62
2021/07/15 01:15:53;;;;;;;2.00;1.90;;;;;;;17.90;59.74;98261.09;5027769;28;20041;-62
2021/07/15 01:18:55;;;;;;;1.88;1.77;;;;;;;17.92;59.99;98251.47;5023397;28;20025;-63
2021/07/15 01:21:43;;;;;;;2.60;1.75;;;;;;;17.96;59.52;98252.97;5025248;28;20302;-63
2021/07/15 01:24:39;;;;;;;1.60;1.50;;;;;;;17.97;59.42;98253.81;5031130;28;20036;-63
2021/07/15 01:27:31;;;;;;;2.15;1.92;;;;;;;17.97;59.10;98256.41;5024131;28;20256;-62
2021/07/15 01:30:00;;;;;;;1.65;1.55;;;;;;;18.00;58.96;98245.84;5027009;28;20045;-63
2021/07/15 01:32:29;;;;;;;2.00;1.90;;;;;;;17.98;58.89;98248.53;5026238;28;20021;-63
2021/07/15 01:35:01;;;;;;;2.13;1.90;;;;;;;18.00;58.80;98245.84;5027126;28;20021;-63
2021/07/15 01:37:28;;;;;;;2.45;1.55;;;;;;;18.04;58.63;98249.94;5024743;28;20034;-63
2021/07/15 01:39:54;;;;;;;2.03;1.83;;;;;;;17.99;58.90;98246.78;5027816;28;20076;-62
2021/07/15 01:42:21;;;;;;;2.45;1.70;;;;;;;17.99;58.57;98242.41;5031432;28;20036;-62
2021/07/15 01:44:46;;;;;;;1.70;1.60;;;;;;;18.01;58.52;98243.19;5026148;28;20037;-62
2021/07/15 01:47:13;;;;;;;1.85;1.75;;;;;;;17.98;58.59;98239.94;5028157;28;20076;-63
2021/07/15 01:49:41;;;;;;;1.63;1.52;;;;;;;17.94;58.55;98236.66;5028262;28;20036;-62
2021/07/15 01:52:08;;;;;;;1.70;1.60;;;;;;;17.93;58.80;98234.16;5028790;28;20088;-62
2021/07/15 01:54:34;;;;;;;2.08;1.98;;;;;;;17.85;58.88;98233.72;5031156;28;20030;-62
2021/07/15 01:57:02;;;;;;;2.00;1.90;;;;;;;17.92;58.80;98230.72;5028644;28;20026;-62
2021/07/15 01:59:32;;;;;;;1.70;1.60;;;;;;;17.93;58.55;98229.78;5026709;28;20029;-62
2021/07/15 02:01:58;;;;;;;2.10;2.00;;;;;;;18.01;58.39;98230.22;5022873;28;20033;-62
2021/07/15 02:04:24;;;;;;;1.80;1.70;;;;;;;18.07;58.15;98232.47;5021027;28;20079;-62
2021/07/15 02:06:53;;;;;;;2.10;2.00;;;;;;;18.10;58.56;98229.69;5025284;28;20026;-63
2021/07/15 02:09:20;;;;;;;2.25;2.15;;;;;;;18.13;58.69;98226.94;5029892;28;20116;-63
2021/07/15 02:11:48;;;;;;;1.65;1.55;;;;;;;18.20;58.39;98227.44;5036083;28;20124;-63
2021/07/15 02:14:15;;;;;;;1.70;1.60;;;;;;;18.21;58.65;98227.34;5033744;28;20036;-63
2021/07/15 02:16:43;;;;;;;2.03;1.73;;;;;;;18.24;58.20;98224.59;5030643;28;20030;-62
2021/07/15 02:19:11;;;;;;;2.38;2.17;;;;;;;18.19;58.83;98236.97;5033762;28;20469;-63
2021/07/15 02:21:37;;;;;;;2.00;1.90;;;;;;;18.18;58.63;98227.50;5031047;28;20195;-62
2021/07/15 02:24:05;;;;;;;2.10;2.00;;;;;;;18.14;58.71;98226.00;5029778;28;20412;-62
2021/07/15 02:26:31;;;;;;;1.88;1.77;;;;;;;18.09;59.11;98229.78;5033895;28;20381;-62
2021/07/15 02:28:58;;;;;;;3.03;2.00;;;;;;;18.07;58.90;98229.88;5027351;28;20037;-62
2021/07/15 02:31:41;;;;;;;1.98;1.88;;;;;;;17.98;59.50;98237.31;5030862;28;20390;-62
2021/07/15 02:34:14;;;;;;;2.10;2.00;;;;;;;18.00;59.42;98232.88;5030291;28;20021;-63
2021/07/15 02:36:40;;;;;;;2.17;2.08;;;;;;;17.95;59.57;98219.34;5032098;28;20348;-63
2021/07/15 02:39:09;;;;;;;2.28;2.17;;;;;;;17.85;60.13;98223.34;5033766;28;20048;-62
2021/07/15 02:41:34;;;;;;;2.22;2.13;;;;;;;17.75;60.86;98223.00;5030972;28;20033;-62
2021/07/15 02:44:00;;;;;;;2.95;2.10;;;;;;;17.67;61.47;98222.59;5030127;28;20350;-62
2021/07/15 02:46:25;;;;;;;1.80;1.70;;;;;;;17.58;62.39;98226.53;5030992;28;20033;-63
2021/07/15 02:48:51;;;;;;;1.83;1.73;;;;;;;17.55;62.88;98228.41;5027479;28;20033;-63
2021/07/15 02:51:17;;;;;;;2.55;2.35;;;;;;;17.46;63.78;98227.16;5029614;28;20034;-63
2021/07/15 02:53:42;;;;;;;2.38;2.20;;;;;;;17.39;64.79;98225.81;5028893;28;20029;-63
2021/07/15 02:56:20;;;;;;;2.00;1.90;;;;;;;17.36;65.04;98221.59;5036969;28;20044;-64
2021/07/15 02:58:59;;;;;;;1.88;1.77;;;;;;;17.36;65.66;98226.78;5029351;28;20033;-62
2021/07/15 03:01:28;;;;;;;2.17;2.05;;;;;;;17.33;64.34;98226.13;5029981;28;20048;-62
2021/07/15 03:04:00;;;;;;;2.08;1.98;;;;;;;17.28;65.13;98226.34;5026849;28;20137;-62
2021/07/15 03:06:38;;;;;;;3.13;2.20;;;;;;;17.25;66.07;98223.94;5030141;28;20111;-62
2021/07/15 03:09:11;;;;;;;2.60;2.40;;;;;;;17.24;65.89;98231.78;5025287;28;20021;-62
2021/07/15 03:11:41;;;;;;;2.67;2.58;;;;;;;17.22;64.75;98224.09;5033941;28;20120;-62
2021/07/15 03:14:08;;;;;;;2.30;2.20;;;;;;;17.19;65.13;98226.81;5027768;28;20032;-62
2021/07/15 03:16:38;;;;;;;2.50;2.40;;;;;;;17.19;64.00;98223.41;5030566;28;20036;-62
2021/07/15 03:19:05;;;;;;;5.03;2.13;;;;;;;17.26;63.34;98224.78;5029835;28;20040;-62
2021/07/15 03:21:33;;;;;;;2.20;2.10;;;;;;;17.35;63.60;98226.88;5027097;28;20061;-61
2021/07/15 03:24:01;;;;;;;2.45;2.13;;;;;;;17.49;62.88;98229.56;5029949;28;20616;-63
2021/07/15 03:26:26;;;;;;;1.98;1.88;;;;;;;17.59;62.82;98237.72;5028963;28;20383;-62
2021/07/15 03:28:53;;;;;;;2.40;2.30;;;;;;;17.72;64.31;98239.59;5030067;28;20038;-61
2021/07/15 03:31:21;;;;;;;2.40;2.30;;;;;;;17.84;64.95;98238.06;5032830;28;20484;-62
2021/07/15 03:33:50;;;;;;;2.17;2.08;;;;;;;17.94;64.75;98241.00;5027737;28;20302;-63
2021/07/15 03:36:16;;;;;;;2.10;2.00;;;;;;;18.01;63.09;98243.19;5026645;28;20137;-62
2021/07/15 03:38:42;;;;;;;1.95;1.85;;;;;;;18.12;61.29;98250.38;5029815;28;20041;-62
2021/07/15 03:41:11;;;;;;;1.92;1.83;;;;;;;18.30;60.33;98248.50;5026870;28;20036;-62
2021/07/15 03:43:41;;;;;;;2.22;2.10;;;;;;;18.42;59.83;98260.78;5028926;28;20101;-62
2021/07/15 03:46:07;;;;;;;2.42;2.10;;;;;;;18.45;59.58;98261.47;5030430;28;20033;-62
2021/07/15 03:48:33;;;;;;;2.17;2.08;;;;;;;18.54;59.02;98260.94;5028206;28;20151;-62
2021/07/15 03:51:05;;;;;;;2.10;2.00;;;;;;;18.67;58.85;98261.13;5027752;28;20107;-62
2021/07/15 03:53:32;;;;;;;2.30;2.20;;;;;;;18.74;58.23;98254.63;5021744;28;20021;-62
2021/07/15 03:56:00;;;;;;;2.92;2.72;;;;;;;18.89;58.08;98251.13;5029148;28;20128;-60
2021/07/15 03:58:26;;;;;;;2.60;2.40;;;;;;;19.01;58.44;98255.59;5029034;28;20057;-62
2021/07/15 04:00:58;;;;;;;2.67;2.47;;;;;;;18.98;57.57;98258.38;5026960;28;20029;-62
2021/07/15 04:03:24;;;;;;;2.08;1.85;;;;;;;19.16;56.08;98249.50;5031717;28;20029;-62
2021/07/15 04:05:52;;;;;;;3.03;2.88;;;;;;;19.30;56.53;98256.50;5031592;28;20029;-61
2021/07/15 04:08:23;;;;;;;2.53;2.40;;;;;;;19.34;57.12;98255.38;5044198;28;20072;-61
2021/07/15 04:10:51;;;;;;;3.15;2.95;;;;;;;19.46;57.37;98269.44;5023849;28;20029;-61
2021/07/15 04:13:18;;;;;;;2.38;2.28;;;;;;;19.51;55.45;98278.63;5028368;28;20034;-61
2021/07/15 04:15:55;;;;;;;2.60;2.10;;;;;;;19.57;56.46;98280.84;5029770;28;20031;-61
2021/07/15 04:18:28;;;;;;;2.58;2.47;;;;;;;19.60;55.31;98279.84;5027573;28;20030;-61
2021/07/15 04:20:55;;;;;;;2.60;2.40;;;;;;;19.50;54.82;98284.75;5023934;28;20056;-61
2021/07/15 04:23:24;;;;;;;2.47;2.28;;;;;;;19.52;54.94;98282.03;5026325;28;20351;-62
2021/07/15 04:25:54;;;;;;;2.38;2.28;;;;;;;19.40;55.82;98273.19;5026026;28;20395;-62
2021/07/15 04:28:20;;;;;;;3.83;2.35;;;;;;;19.30;55.24;98273.84;5026015;28;20418;-62
2021/07/15 04:30:48;;;;;;;3.35;2.20;;;;;;;19.21;56.13;98284.78;5033123;28;20040;-62
2021/07/15 04:33:13;;;;;;;2.55;2.42;;;;;;;19.13;55.86;98280.06;5030282;28;20029;-62
2021/07/15 04:35:40;;;;;;;2.08;1.98;;;;;;;19.10;56.15;98295.81;5029551;28;20022;-62
2021/07/15 04:38:07;;;;;;;2.33;2.22;;;;;;;18.95;56.55;98294.94;5025612;28;20131;-62
2021/07/15 04:40:34;;;;;;;2.22;2.13;;;;;;;18.96;56.48;98288.00;5029118;28;20409;-62
2021/07/15 04:43:06;;;;;;;2.40;2.30;;;;;;;18.96;56.72;98288.84;5025726;28;20034;-62
2021/07/15 04:45:33;;;;;;;2.42;2.33;;;;;;;18.93;56.82;98288.16;5026117;28;20037;-62
2021/07/15 04:48:00;;;;;;;2.40;2.30;;;;;;;18.84;57.83;98291.31;5026507;28;20029;-62
2021/07/15 04:50:28;;;;;;;4.75;2.60;;;;;;;18.81;57.26;98288.88;5027575;28;20025;-62
2021/07/15 04:53:00;;;;;;;2.20;2.10;;;;;;;18.83;56.51;98292.22;5024262;28;20076;-62
2021/07/15 04:55:26;;;;;;;2.45;2.30;;;;;;;18.83;56.36;98292.22;5032304;28;20784;-62
2021/07/15 04:57:53;;;;;;;4.45;2.38;;;;;;;18.92;56.92;98283.91;5028351;28;20029;-62
2021/07/15 05:00:20;;;;;;;2.55;2.00;;;;;;;18.86;56.82;98279.91;5026650;28;20063;-62
2021/07/15 05:02:50;;;;;;;2.53;2.33;;;;;;;18.77;56.88;98284.78;5025435;28;20438;-62
2021/07/15 05:05:15;;;;;;;2.33;2.13;;;;;;;18.84;56.62;98281.72;5027145;28;20584;-62
2021/07/15 05:07:41;;;;;;;2.50;2.30;;;;;;;19.01;56.47;98284.19;5028103;28;20369;-62
2021/07/15 05:10:08;;;;;;;3.15;2.20;;;;;;;19.10;56.22;98278.44;5029931;28;20090;-62
2021/07/15 05:12:34;;;;;;;2.75;2.05;;;;;;;19.20;55.48;98278.75;5027896;28;20032;-62
2021/07/15 05:15:08;;;;;;;3.47;2.13;;;;;;;19.49;55.44;98266.63;5023487;28;20021;-62
2021/07/15 05:17:35;;;;;;;2.28;2.17;;;;;;;19.64;55.31;98278.72;5024171;28;20049;-62
2021/07/15 05:20:01;;;;;;;2.45;2.33;;;;;;;19.68;54.39;98272.41;5026609;28;20060;-62
2021/07/15 05:22:26;;;;;;;2.85;2.60;;;;;;;19.78;53.82;98278.69;5031041;28;20033;-62
2021/07/15 05:24:52;;;;;;;2.17;2.08;;;;;;;19.83;53.75;98268.84;5026916;28;20286;-62
2021/07/15 05:27:17;;;;;;;2.60;2.40;;;;;;;19.86;53.77;98280.84;5025908;28;20029;-63
2021/07/15 05:29:43;;;;;;;2.30;2.20;;;;;;;20.02;53.29;98276.34;5024375;28;20353;-62
2021/07/15 05:32:08;;;;;;;2.15;2.00;;;;;;;20.04;53.25;98279.66;5029233;28;20040;-62
2021/07/15 05:34:34;;;;;;;2.03;1.92;;;;;;;20.05;52.56;98282.19;5029581;28;20084;-62
2021/07/15 05:37:03;;;;;;;4.93;2.78;;;;;;;20.17;52.41;98274.53;5026247;28;20087;-62
2021/07/15 05:39:30;;;;;;;2.45;2.25;;;;;;;20.26;52.37;98268.72;5034945;28;20114;-62
2021/07/15 05:41:55;;;;;;;2.03;1.92;;;;;;;20.41;51.07;98271.22;5028118;28;20104;-62
2021/07/15 05:44:21;;;;;;;3.75;2.45;;;;;;;20.42;50.74;98264.25;5032694;28;20419;-62
2021/07/15 05:46:46;;;;;;;2.40;2.30;;;;;;;20.58;50.96;98264.09;5030151;28;20037;-62
2021/07/15 05:49:12;;;;;;;2.25;2.10;;;;;;;20.81;50.11;98259.03;5030098;28;20033;-62
2021/07/15 05:51:37;;;;;;;2.35;2.25;;;;;;;20.93;49.77;98270.41;5023879;28;20037;-62
2021/07/15 05:54:03;;;;;;;2.78;2.17;;;;;;;20.92;49.40;98261.75;5028440;28;20025;-62
2021/07/15 05:56:28;;;;;;;3.42;2.08;;;;;;;21.07;48.98;98267.72;5030621;28;20032;-62
2021/07/15 05:58:54;;;;;;;2.40;2.30;;;;;;;21.19;48.38;98268.69;5030282;28;20025;-62
2021/07/15 06:01:19;;;;;;;2.33;2.22;;;;;;;21.24;48.25;98284.88;5032159;28;20115;-62
2021/07/15 06:03:45;;;;;;;1.80;1.70;;;;;;;21.31;47.81;98283.50;5031980;28;20037;-62
2021/07/15 06:06:11;;;;;;;2.22;2.13;;;;;;;21.53;47.42;98277.66;5032397;28;20029;-63
2021/07/15 06:08:36;;;;;;;1.77;1.67;;;;;;;21.56;47.02;98275.66;5033512;28;20029;-63
2021/07/15 06:11:02;;;;;;;1.98;1.85;;;;;;;21.62;47.21;98274.41;5028808;28;20056;-64
2021/07/15 06:13:28;;;;;;;2.58;1.95;;;;;;;21.63;46.79;98284.75;5031560;28;20273;-62
2021/07/15 06:15:54;;;;;;;1.73;1.70;;;;;;;21.74;46.91;98286.59;5031307;28;20047;-63
2021/07/15 06:18:20;;;;;;;3.15;1.83;;;;;;;21.91;45.85;98293.25;5029205;28;20133;-63
2021/07/15 06:20:46;;;;;;;2.05;1.92;;;;;;;21.92;46.25;98289.72;5036298;28;20060;-63
2021/07/15 06:23:11;;;;;;;1.73;1.65;;;;;;;21.90;45.65;98286.38;5030570;28;20037;-62
2021/07/15 06:25:37;;;;;;;1.75;1.65;;;;;;;21.92;45.24;98287.97;5028926;28;20345;-62
2021/07/15 06:28:02;;;;;;;2.10;1.90;;;;;;;22.15;45.18;98281.13;5036592;28;20621;-63
2021/07/15 06:30:28;;;;;;;2.92;2.05;;;;;;;21.92;45.77;98280.13;5030898;28;20422;-64
2021/07/15 06:32:54;;;;;;;2.28;1.60;;;;;;;21.94;45.54;98288.69;5027240;28;20041;-64
2021/07/15 06:35:21;;;;;;;1.63;1.63;;;;;;;21.95;45.09;98284.28;5032314;28;20339;-64
2021/07/15 06:37:52;;;;;;;2.35;1.92;;;;;;;22.08;45.09;98283.31;5030066;28;20099;-62
2021/07/15 06:40:19;;;;;;;1.70;1.60;;;;;;;22.01;45.95;98297.78;5028616;28;20046;-62
2021/07/15 06:42:45;;;;;;;2.13;1.90;;;;;;;22.22;44.23;98287.56;5032432;28;20029;-63
2021/07/15 06:45:11;;;;;;;2.55;1.50;;;;;;;22.09;45.31;98279.78;5027794;28;20033;-62
2021/07/15 06:47:37;;;;;;;1.92;1.83;;;;;;;22.26;44.79;98283.78;5033627;28;20036;-63
2021/07/15 06:50:08;;;;;;;2.05;1.95;;;;;;;22.39;44.46;98281.97;5037741;28;20116;-63
2021/07/15 06:52:34;;;;;;;2.22;2.13;;;;;;;22.52;44.18;98280.13;5026108;28;20380;-63
2021/07/15 06:55:02;;;;;;;2.10;2.00;;;;;;;22.57;43.73;98287.63;5034362;28;20037;-63
2021/07/15 06:57:28;;;;;;;4.43;1.63;;;;;;;22.68;43.92;98293.75;5031261;28;20052;-63
2021/07/15 06:59:54;;;;;;;1.73;1.63;;;;;;;22.75;42.85;98294.13;5030883;28;20379;-63
2021/07/15 07:02:20;;;;;;;2.33;1.67;;;;;;;22.86;42.86;98285.53;5029579;28;20046;-63
2021/07/15 07:04:45;;;;;;;1.83;1.40;;;;;;;23.02;42.32;98280.81;5029742;28;20026;-63
2021/07/15 07:07:11;;;;;;;1.60;1.50;;;;;;;23.04;43.39;98284.97;5025365;28;20037;-63
2021/07/15 07:09:37;;;;;;;1.30;1.30;;;;;;;22.71;43.18;98285.69;5028052;28;20363;-62
2021/07/15 07:12:03;;;;;;;1.70;1.60;;;;;;;23.02;42.90;98289.50;5030392;28;20029;-61
2021/07/15 07:14:28;;;;;;;2.75;2.05;;;;;;;22.89;42.46;98286.13;5028725;28;20443;-62
2021/07/15 07:16:53;;;;;;;1.60;1.60;;;;;;;23.02;43.17;98278.19;5030279;28;20128;-62
2021/07/15 07:19:19;;;;;;;1.95;1.60;;;;;;;23.10;43.16;98274.06;5028962;28;20063;-63
2021/07/15 07:21:44;;;;;;;2.55;1.70;;;;;;;22.99;42.80;98281.03;5027038;28;20045;-63
2021/07/15 07:24:10;;;;;;;1.77;1.67;;;;;;;23.06;42.13;98266.56;5023278;28;20028;-63
2021/07/15 07:26:35;;;;;;;1.92;1.60;;;;;;;23.04;42.43;98263.22;5035443;28;20036;-63
2021/07/15 07:29:01;;;;;;;1.90;1.80;;;;;;;23.12;42.07;98256.47;5030483;28;20033;-63
2021/07/15 07:31:28;;;;;;;2.13;1.80;;;;;;;23.20;41.71;98258.50;5030155;28;20287;-63
2021/07/15 07:33:53;;;;;;;1.35;1.35;;;;;;;23.11;42.69;98251.34;5026598;28;20022;-63
2021/07/15 07:36:19;;;;;;;1.83;1.73;;;;;;;23.49;41.82;98245.81;5026117;28;20383;-63
2021/07/15 07:38:44;;;;;;;2.40;2.20;;;;;;;23.72;42.37;98249.28;5027131;28;20120;-63
2021/07/15 07:41:10;;;;;;;1.67;1.60;;;;;;;23.79;41.78;98245.22;5026112;28;20044;-63
2021/07/15 07:43:37;;;;;;;1.75;1.73;;;;;;;24.01;41.52;98247.81;5030240;28;20450;-63
2021/07/15 07:46:03;;;;;;;1.50;1.50;;;;;;;24.00;40.71;98239.13;5027135;28;20124;-63
2021/07/15 07:48:28;;;;;;;2.60;1.40;;;;;;;23.79;41.14;98245.22;5026922;28;20029;-63
2021/07/15 07:50:57;;;;;;;1.80;1.70;;;;;;;23.89;40.78;98240.94;5026917;28;20264;-63
2021/07/15 07:53:23;;;;;;;2.92;1.63;;;;;;;24.01;39.69;98242.56;5030999;28;20025;-63
2021/07/15 07:55:48;;;;;;;1.40;1.40;;;;;;;23.91;40.14;98236.38;5029809;28;20433;-63
2021/07/15 07:58:14;;;;;;;1.98;1.88;;;;;;;23.84;40.42;98246.53;5029119;28;20029;-63
2021/07/15 08:00:39;;;;;;;1.60;1.58;;;;;;;23.81;39.39;98248.53;5024606;28;20366;-63
2021/07/15 08:03:04;;;;;;;1.60;1.50;;;;;;;23.60;40.27;98238.78;5027673;28;20033;-63
2021/07/15 08:05:31;;;;;;;1.60;1.52;;;;;;;23.66;40.29;98247.97;5022980;28;20115;-63
2021/07/15 08:07:57;;;;;;;2.15;1.77;;;;;;;24.00;39.38;98239.13;5026958;28;20037;-63
2021/07/15 08:10:22;;;;;;;1.60;1.50;;;;;;;23.86;38.56;98243.78;5029140;28;20035;-63
2021/07/15 08:12:48;;;;;;;1.70;1.60;;;;;;;23.60;38.87;98249.25;5032496;28;20041;-63
2021/07/15 08:15:13;;;;;;;1.50;1.48;;;;;;;23.90;38.98;98255.66;5030595;28;20099;-63
2021/07/15 08:17:40;;;;;;;1.52;1.42;;;;;;;24.29;39.92;98249.91;5028061;28;20031;-63
2021/07/15 08:20:07;;;;;;;1.58;1.50;;;;;;;24.74;38.16;98239.25;5030588;28;20089;-63
2021/07/15 08:22:32;;;;;;;1.38;1.38;;;;;;;24.85;37.28;98240.03;5028259;28;20540;-63
2021/07/15 08:24:58;;;;;;;1.98;1.88;;;;;;;25.02;36.21;98241.25;5025240;28;20644;-63
2021/07/15 08:27:23;;;;;;;1.70;1.60;;;;;;;25.05;36.42;98233.13;5024483;28;20111;-63
2021/07/15 08:29:49;;;;;;;1.48;1.38;;;;;;;25.16;36.32;98243.56;5033006;28;20029;-63
2021/07/15 08:32:14;;;;;;;1.77;1.63;;;;;;;25.09;35.86;98228.44;5031335;28;20037;-63
2021/07/15 08:34:39;;;;;;;1.58;1.48;;;;;;;25.11;36.46;98231.78;5028059;28;20432;-63
2021/07/15 08:37:05;;;;;;;1.50;1.50;;;;;;;25.04;36.58;98230.66;5029447;28;20033;-63
2021/07/15 08:39:30;;;;;;;3.30;2.05;;;;;;;24.89;36.37;98227.50;5032945;28;20033;-63
2021/07/15 08:41:58;;;;;;;1.80;1.70;;;;;;;24.87;36.69;98235.47;5027796;28;20041;-63
2021/07/15 08:44:24;;;;;;;1.60;1.50;;;;;;;24.62;37.87;98240.22;5029755;28;20133;-63
2021/07/15 08:46:49;;;;;;;2.30;2.15;;;;;;;24.94;38.18;98244.53;5030013;28;20465;-62
2021/07/15 08:49:20;;;;;;;1.77;1.67;;;;;;;25.08;37.72;98240.72;5025937;28;20056;-63
2021/07/15 08:51:47;;;;;;;1.95;1.85;;;;;;;25.20;37.99;98229.22;5024321;28;20053;-63
2021/07/15 08:54:15;;;;;;;2.13;1.77;;;;;;;25.57;37.88;98233.97;5026933;28;20025;-63
2021/07/15 08:56:43;;;;;;;1.92;1.70;;;;;;;25.55;37.19;98235.88;5025654;28;20327;-63
2021/07/15 08:59:12;;;;;;;3.33;2.00;;;;;;;25.48;37.22;98239.00;5026058;28;20402;-63
2021/07/15 09:01:50;;;;;;;2.20;2.10;;;;;;;25.72;37.58;98230.00;5027632;28;20368;-63
2021/07/15 09:04:17;;;;;;;2.25;2.15;;;;;;;25.87;38.32;98236.56;5028467;28;20115;-63
2021/07/15 09:06:43;;;;;;;1.98;1.88;;;;;;;25.96;37.39;98241.00;5026782;28;20126;-63
2021/07/15 09:09:10;;;;;;;2.25;2.15;;;;;;;25.92;37.71;98240.44;5028159;28;20030;-63
2021/07/15 09:11:38;;;;;;;2.17;2.08;;;;;;;25.95;37.17;98247.22;5026327;28;20032;-63
2021/07/15 09:14:15;;;;;;;2.15;2.05;;;;;;;25.93;36.85;98254.38;5027262;28;20032;-63
2021/07/15 09:16:52;;;;;;;2.13;1.80;;;;;;;25.98;37.14;98246.94;5024236;28;20029;-62
2021/07/15 09:19:19;;;;;;;2.10;2.00;;;;;;;25.74;36.96;98254.34;5027899;28;20109;-62
2021/07/15 09:21:45;;;;;;;2.35;2.25;;;;;;;25.68;37.71;98252.22;5022126;28;20060;-63
2021/07/15 09:24:31;;;;;;;2.17;2.08;;;;;;;26.09;38.68;98256.53;5025962;28;20021;-63
2021/07/15 09:26:57;;;;;;;2.60;2.08;;;;;;;26.16;37.04;98257.63;5028010;28;20079;-63
2021/07/15 09:29:22;;;;;;;2.22;2.00;;;;;;;26.50;36.39;98258.94;5025482;28;20037;-63
2021/07/15 09:31:56;;;;;;;1.80;1.70;;;;;;;26.54;36.87;98262.13;5027329;28;20044;-63
2021/07/15 09:34:22;;;;;;;2.97;2.20;;;;;;;26.60;37.80;98261.59;5028003;28;20083;-63
2021/07/15 09:36:49;;;;;;;2.33;2.22;;;;;;;26.61;38.04;98255.34;5031038;28;20411;-63
2021/07/15 09:39:16;;;;;;;2.75;2.55;;;;;;;26.71;35.81;98253.53;5021414;28;20063;-63
2021/07/15 09:41:42;;;;;;;2.17;2.08;;;;;;;27.09;35.58;98269.31;5027269;28;20040;-63
2021/07/15 09:44:07;;;;;;;2.55;2.35;;;;;;;27.19;36.89;98267.50;5025055;28;20042;-63
2021/07/15 09:46:36;;;;;;;2.40;2.10;;;;;;;27.37;36.03;98270.22;5027152;28;20036;-64
2021/07/15 09:49:08;;;;;;;3.70;3.40;;;;;;;27.35;34.83;98268.72;5029762;28;20029;-63
2021/07/15 09:51:42;;;;;;;2.28;2.13;;;;;;;27.60;33.86;98260.19;5029238;28;20032;-64
2021/07/15 09:54:09;;;;;;;2.30;2.20;;;;;;;27.52;33.82;98254.81;5027430;28;20033;-63
2021/07/15 09:56:43;;;;;;;2.60;2.50;;;;;;;27.55;34.29;98251.91;5025944;28;20038;-63
2021/07/15 09:59:08;;;;;;;2.80;2.60;;;;;;;27.56;35.28;98256.19;5026711;28;20025;-63
2021/07/15 10:01:43;;;;;;;3.00;2.90;;;;;;;27.37;35.22;98245.72;5027677;28;20336;-63
2021/07/15 10:04:09;;;;;;;3.28;3.08;;;;;;;27.36;34.93;98251.94;5022324;28;20033;-63
2021/07/15 10:06:46;;;;;;;2.55;2.45;;;;;;;27.74;34.48;98243.94;5026043;28;20295;-62
2021/07/15 10:09:21;;;;;;;2.95;2.75;;;;;;;27.76;34.74;98244.59;5025333;28;20029;-63
2021/07/15 10:11:47;;;;;;;2.58;2.47;;;;;;;27.63;34.74;98257.28;5027654;28;20299;-63
2021/07/15 10:14:17;;;;;;;2.40;2.30;;;;;;;27.81;33.61;98245.00;5028474;28;20434;-63
2021/07/15 10:16:46;;;;;;;2.55;2.45;;;;;;;27.80;35.83;98243.31;5031263;28;20079;-69
2021/07/15 10:19:23;;;;;;;2.75;2.55;;;;;;;27.93;35.16;98248.25;5027879;28;20026;-69
2021/07/15 10:22:02;;;;;;;2.90;2.80;;;;;;;27.61;34.69;98238.16;5036238;28;20049;-70
2021/07/15 10:24:28;;;;;;;2.40;2.20;;;;;;;27.84;36.07;98235.97;5021252;28;20056;-71
2021/07/15 10:26:57;;;;;;;2.70;2.60;;;;;;;27.98;35.70;98230.19;5024584;28;20037;-71
2021/07/15 10:29:24;;;;;;;2.65;2.50;;;;;;;28.05;34.21;98233.91;5031308;28;20083;-73
2021/07/15 10:31:51;;;;;;;2.08;2.08;;;;;;;28.24;34.96;98232.97;5033415;28;20029;-71
2021/07/15 10:34:17;;;;;;;2.40;2.30;;;;;;;28.33;33.75;98234.72;5028500;28;20032;-70
2021/07/15 10:36:43;;;;;;;2.90;2.70;;;;;;;28.34;35.03;98239.00;5031968;28;20416;-70
2021/07/15 10:39:13;;;;;;;2.50;2.40;;;;;;;28.41;32.83;98234.78;5026717;28;20032;-68
2021/07/15 10:41:44;;;;;;;2.60;2.50;;;;;;;28.45;33.43;98238.78;5033843;28;20064;-69
2021/07/15 10:44:10;;;;;;;2.67;2.58;;;;;;;28.57;34.51;98235.75;5028544;28;20119;-70
2021/07/15 10:46:36;;;;;;;2.60;2.50;;;;;;;28.67;35.47;98235.69;5031343;28;20454;-71
2021/07/15 10:49:04;;;;;;;2.65;2.53;;;;;;;28.86;33.87;98232.06;5031990;28;20498;-71
2021/07/15 10:51:29;;;;;;;2.50;2.40;;;;;;;28.95;32.63;98239.06;5031260;28;20294;-71
2021/07/15 10:53:55;;;;;;;2.72;2.63;;;;;;;29.07;33.78;98237.81;5028966;28;20022;-71
2021/07/15 10:56:21;;;;;;;2.78;2.67;;;;;;;29.38;33.21;98240.84;5026171;28;20045;-71
2021/07/15 10:58:52;;;;;;;2.95;2.85;;;;;;;29.34;32.79;98242.16;5027902;28;20112;-71
2021/07/15 11:01:36;;;;;;;2.83;2.72;;;;;;;29.53;31.38;98244.59;5029088;28;20053;-71
2021/07/15 11:04:13;;;;;;;3.47;2.63;;;;;;;29.69;32.42;98242.00;5033726;28;20038;-69
2021/07/15 11:06:45;;;;;;;2.92;2.70;;;;;;;29.68;31.05;98239.50;5033290;28;20091;-74
2021/07/15 11:09:33;;;;;;;3.28;2.97;;;;;;;29.41;31.09;98237.88;5038239;28;20095;-70
2021/07/15 11:12:01;;;;;;;2.50;2.40;;;;;;;29.34;31.92;98240.34;5024896;28;20034;-70
2021/07/15 11:14:43;;;;;;;3.00;2.83;;;;;;;29.60;31.92;98236.84;5025315;28;20076;-70
2021/07/15 11:17:20;;;;;;;2.90;2.70;;;;;;;29.87;31.64;98234.03;5031945;28;20030;-70
2021/07/15 11:20:05;;;;;;;3.47;3.15;;;;;;;29.78;34.01;98229.66;5029276;28;20260;-69
2021/07/15 11:22:50;;;;;;;3.30;3.20;;;;;;;29.43;31.41;98220.09;5033958;28;20021;-71
2021/07/15 11:25:27;;;;;;;3.08;2.80;;;;;;;29.24;31.53;98217.66;5030135;28;20134;-70
2021/07/15 11:27:59;;;;;;;2.60;2.50;;;;;;;29.39;31.22;98218.75;5027901;28;20367;-71
2021/07/15 11:30:34;;;;;;;2.70;2.55;;;;;;;29.70;30.99;98234.91;5028242;28;20153;-72
2021/07/15 11:33:21;;;;;;;;;;;;;;;29.94;30.34;98232.38;5026407;28;20040;-71
2021/07/15 11:35:53;;;;;;;2.92;2.63;;;;;;;30.19;29.85;98236.75;5029787;28;19948;-71
2021/07/15 11:38:39;;;;;;;2.83;2.72;;;;;;;30.34;30.86;98244.88;5029846;28;20037;-70
2021/07/15 11:41:08;;;;;;;3.05;2.90;;;;;;;30.54;31.02;98237.50;5028132;28;20030;-70